createdAt,value
2023-01-01T00:00:32.506Z,52
2023-01-01T00:01:03.315Z,52
2023-01-01T00:01:35.757Z,52
2023-01-01T00:02:07.570Z,52
2023-01-01T00:02:37.021Z,52
2023-01-01T00:02:55.297Z,52
2023-01-01T00:03:27.365Z,52
2023-01-01T00:04:00.291Z,52
2023-01-01T00:04:31.426Z,52
2023-01-01T00:05:04.278Z,52
2023-01-01T00:05:34.561Z,52
2023-01-01T00:06:06.715Z,52
2023-01-01T00:06:23.915Z,52
2023-01-01T00:06:41.196Z,52
2023-01-01T00:07:11.279Z,52
2023-01-01T00:07:34.713Z,52
2023-01-01T00:08:04.671Z,52
2023-01-01T00:08:32.112Z,52
2023-01-01T00:09:03.334Z,52
2023-01-01T00:09:35.663Z,53
2023-01-01T00:10:07.477Z,52
2023-01-01T00:10:34.603Z,53
2023-01-01T00:10:55.608Z,53
2023-01-01T00:11:27.541Z,53
2023-01-01T00:12:00.050Z,53
2023-01-01T00:12:31.268Z,52
2023-01-01T00:13:03.944Z,53
2023-01-01T00:13:34.686Z,53
2023-01-01T00:14:11.877Z,53
2023-01-01T00:14:23.974Z,52
2023-01-01T00:14:41.177Z,52
2023-01-01T00:15:11.607Z,53
2023-01-01T00:15:34.691Z,53
2023-01-01T00:15:59.496Z,53
2023-01-01T00:16:32.781Z,53
2023-01-01T00:17:03.372Z,52
2023-01-01T00:17:36.173Z,53
2023-01-01T00:18:07.686Z,52
2023-01-01T00:18:38.664Z,52
2023-01-01T00:19:12.195Z,52
2023-01-01T00:19:35.368Z,53
2023-01-01T00:19:59.422Z,52
2023-01-01T00:20:35.200Z,52
2023-01-01T00:21:03.400Z,52
2023-01-01T00:21:34.603Z,52
2023-01-01T00:22:35.281Z,52
2023-01-01T00:22:56.307Z,52
2023-01-01T00:23:28.001Z,52
2023-01-01T00:23:59.304Z,52
2023-01-01T00:24:32.091Z,52
2023-01-01T00:25:03.520Z,53
2023-01-01T00:25:35.859Z,53
2023-01-01T00:26:07.234Z,53
2023-01-01T00:26:35.461Z,53
2023-01-01T00:26:55.580Z,52
2023-01-01T00:27:27.513Z,52
2023-01-01T00:28:00.186Z,52
2023-01-01T00:28:31.325Z,53
2023-01-01T00:29:04.036Z,53
2023-01-01T00:29:34.737Z,53
2023-01-01T00:30:07.018Z,53
2023-01-01T00:30:24.138Z,53
2023-01-01T00:30:41.518Z,53
2023-01-01T00:31:11.449Z,53
2023-01-01T00:31:34.705Z,53
2023-01-01T00:31:59.329Z,53
2023-01-01T00:32:32.361Z,53
2023-01-01T00:33:03.664Z,53
2023-01-01T00:33:36.169Z,53
2023-01-01T00:34:07.749Z,53
2023-01-01T00:34:34.697Z,53
2023-01-01T00:34:55.402Z,53
2023-01-01T00:35:27.596Z,53
2023-01-01T00:35:59.970Z,53
2023-01-01T00:36:31.410Z,53
2023-01-01T00:37:03.914Z,53
2023-01-01T00:37:34.699Z,53
2023-01-01T00:38:06.880Z,53
2023-01-01T00:38:24.156Z,53
2023-01-01T00:38:41.210Z,53
2023-01-01T00:39:11.301Z,53
2023-01-01T00:39:34.548Z,53
2023-01-01T00:39:59.288Z,53
2023-01-01T00:40:32.321Z,54
2023-01-01T00:41:03.261Z,53
2023-01-01T00:41:35.604Z,53
2023-01-01T00:42:07.254Z,53
2023-01-01T00:42:34.943Z,53
2023-01-01T00:42:55.381Z,53
2023-01-01T00:43:35.037Z,53
2023-01-01T00:44:00.221Z,53
2023-01-01T00:44:31.341Z,53
2023-01-01T00:45:04.805Z,53
2023-01-01T00:45:35.060Z,53
2023-01-01T00:45:51.361Z,53
2023-01-01T00:46:23.435Z,54
2023-01-01T00:46:40.518Z,53
2023-01-01T00:47:13.670Z,53
2023-01-01T00:47:34.545Z,53
2023-01-01T00:47:59.316Z,53
2023-01-01T00:48:31.412Z,53
2023-01-01T00:49:03.372Z,53
2023-01-01T00:49:34.679Z,53
2023-01-01T00:50:08.149Z,53
2023-01-01T00:50:34.528Z,53
2023-01-01T00:50:55.819Z,53
2023-01-01T00:51:30.481Z,53
2023-01-01T00:51:59.297Z,53
2023-01-01T00:52:31.678Z,53
2023-01-01T00:53:19.961Z,53
2023-01-01T00:53:51.330Z,53
2023-01-01T00:54:24.106Z,53
2023-01-01T00:54:40.993Z,53
2023-01-01T00:55:11.408Z,53
2023-01-01T00:55:34.710Z,52
2023-01-01T00:55:59.489Z,53
2023-01-01T00:56:32.005Z,52
2023-01-01T00:57:03.323Z,53
2023-01-01T00:57:35.993Z,53
2023-01-01T00:58:07.347Z,52
2023-01-01T00:58:34.559Z,53
2023-01-01T00:59:00.635Z,53
2023-01-01T00:59:29.141Z,53
2023-01-01T01:00:00.043Z,52
2023-01-01T01:00:31.553Z,52
2023-01-01T01:01:04.187Z,52
2023-01-01T01:01:34.785Z,52
2023-01-01T01:02:06.832Z,52
2023-01-01T01:02:24.172Z,52
2023-01-01T01:02:41.502Z,52
2023-01-01T01:03:11.467Z,52
2023-01-01T01:03:34.685Z,52
2023-01-01T01:03:59.303Z,52
2023-01-01T01:04:31.978Z,52
2023-01-01T01:05:03.432Z,52
2023-01-01T01:05:35.548Z,53
2023-01-01T01:06:07.326Z,53
2023-01-01T01:06:34.509Z,53
2023-01-01T01:06:55.344Z,53
2023-01-01T01:07:27.337Z,53
2023-01-01T01:08:00.073Z,53
2023-01-01T01:08:31.555Z,53
2023-01-01T01:09:04.231Z,53
2023-01-01T01:09:34.670Z,53
2023-01-01T01:10:06.899Z,53
2023-01-01T01:10:24.110Z,53
2023-01-01T01:10:41.276Z,53
2023-01-01T01:11:11.251Z,53
2023-01-01T01:11:35.391Z,53
2023-01-01T01:12:18.058Z,53
2023-01-01T01:12:32.005Z,53
2023-01-01T01:13:03.279Z,53
2023-01-01T01:13:35.534Z,53
2023-01-01T01:14:07.325Z,53
2023-01-01T01:14:34.525Z,53
2023-01-01T01:14:55.332Z,53
2023-01-01T01:15:27.500Z,53
2023-01-01T01:16:00.139Z,53
2023-01-01T01:16:31.340Z,53
2023-01-01T01:17:03.944Z,52
2023-01-01T01:17:34.613Z,52
2023-01-01T01:18:06.729Z,52
2023-01-01T01:18:23.788Z,53
2023-01-01T01:18:40.931Z,53
2023-01-01T01:19:11.779Z,53
2023-01-01T01:19:34.602Z,53
2023-01-01T01:19:59.382Z,53
2023-01-01T01:20:32.352Z,53
2023-01-01T01:21:03.275Z,53
2023-01-01T01:21:35.408Z,53
2023-01-01T01:22:07.424Z,53
2023-01-01T01:22:34.645Z,53
2023-01-01T01:22:55.472Z,53
2023-01-01T01:23:27.294Z,53
2023-01-01T01:23:59.823Z,53
2023-01-01T01:24:31.392Z,53
2023-01-01T01:25:04.319Z,53
2023-01-01T01:25:34.498Z,53
2023-01-01T01:25:51.208Z,53
2023-01-01T01:26:23.436Z,53
2023-01-01T01:26:40.490Z,53
2023-01-01T01:27:12.010Z,53
2023-01-01T01:27:34.614Z,53
2023-01-01T01:27:59.327Z,53
2023-01-01T01:28:31.330Z,53
2023-01-01T01:29:03.257Z,53
2023-01-01T01:29:34.511Z,53
2023-01-01T01:30:06.902Z,53
2023-01-01T01:30:23.993Z,53
2023-01-01T01:30:41.322Z,53
2023-01-01T01:31:11.314Z,53
2023-01-01T01:31:34.625Z,53
2023-01-01T01:31:59.354Z,53
2023-01-01T01:32:32.034Z,53
2023-01-01T01:33:03.325Z,53
2023-01-01T01:33:35.631Z,53
2023-01-01T01:34:09.722Z,53
2023-01-01T01:34:34.649Z,53
2023-01-01T01:34:55.238Z,53
2023-01-01T01:35:27.426Z,53
2023-01-01T01:36:00.228Z,53
2023-01-01T01:36:31.229Z,53
2023-01-01T01:37:04.031Z,53
2023-01-01T01:37:37.878Z,53
2023-01-01T01:38:08.043Z,53
2023-01-01T01:38:34.917Z,53
2023-01-01T01:38:55.362Z,53
2023-01-01T01:39:27.335Z,53
2023-01-01T01:39:59.272Z,53
2023-01-01T01:40:31.377Z,53
2023-01-01T01:41:03.273Z,53
2023-01-01T01:41:35.125Z,53
2023-01-01T01:42:07.444Z,53
2023-01-01T01:42:34.574Z,53
2023-01-01T01:42:55.295Z,53
2023-01-01T01:43:27.828Z,53
2023-01-01T01:43:59.358Z,53
2023-01-01T01:44:32.021Z,53
2023-01-01T01:45:03.613Z,53
2023-01-01T01:45:35.353Z,53
2023-01-01T01:46:07.290Z,53
2023-01-01T01:46:34.700Z,53
2023-01-01T01:46:55.348Z,53
2023-01-01T01:47:27.347Z,53
2023-01-01T01:48:00.054Z,53
2023-01-01T01:48:31.225Z,53
2023-01-01T01:49:03.362Z,53
2023-01-01T01:49:34.707Z,54
2023-01-01T01:49:51.910Z,53
2023-01-01T01:50:23.446Z,54
2023-01-01T01:50:40.348Z,54
2023-01-01T01:51:11.362Z,53
2023-01-01T01:51:34.810Z,54
2023-01-01T01:52:00.122Z,54
2023-01-01T01:52:31.193Z,54
2023-01-01T01:53:04.112Z,54
2023-01-01T01:53:34.705Z,54
2023-01-01T01:54:08.150Z,54
2023-01-01T01:54:34.624Z,54
2023-01-01T01:54:55.276Z,54
2023-01-01T01:55:27.472Z,54
2023-01-01T01:55:59.236Z,54
2023-01-01T01:56:31.257Z,54
2023-01-01T01:57:03.303Z,54
2023-01-01T01:57:34.954Z,54
2023-01-01T01:57:50.989Z,54
2023-01-01T01:58:24.213Z,54
2023-01-01T01:58:41.294Z,54
2023-01-01T01:59:11.323Z,54
2023-01-01T01:59:34.692Z,54
2023-01-01T02:00:01.416Z,54
2023-01-01T02:00:32.515Z,54
2023-01-01T02:01:03.479Z,54
2023-01-01T02:01:36.054Z,54
2023-01-01T02:02:07.284Z,54
2023-01-01T02:02:34.834Z,54
2023-01-01T02:02:55.460Z,54
2023-01-01T02:03:27.425Z,54
2023-01-01T02:04:00.169Z,54
2023-01-01T02:04:31.363Z,54
2023-01-01T02:05:04.027Z,54
2023-01-01T02:05:35.222Z,54
2023-01-01T02:06:08.382Z,54
2023-01-01T02:06:34.801Z,54
2023-01-01T02:06:55.346Z,54
2023-01-01T02:07:27.200Z,54
2023-01-01T02:07:59.233Z,54
2023-01-01T02:08:31.317Z,54
2023-01-01T02:09:03.362Z,54
2023-01-01T02:09:34.770Z,54
2023-01-01T02:09:51.094Z,54
2023-01-01T02:10:24.343Z,54
2023-01-01T02:10:41.440Z,54
2023-01-01T02:11:11.313Z,54
2023-01-01T02:11:34.611Z,54
2023-01-01T02:11:59.222Z,54
2023-01-01T02:12:32.320Z,54
2023-01-01T02:13:03.347Z,54
2023-01-01T02:13:35.653Z,54
2023-01-01T02:14:08.815Z,54
2023-01-01T02:14:34.682Z,54
2023-01-01T02:14:55.317Z,54
2023-01-01T02:15:27.641Z,55
2023-01-01T02:16:00.334Z,54
2023-01-01T02:16:31.264Z,55
2023-01-01T02:17:04.358Z,54
2023-01-01T02:17:39.028Z,54
2023-01-01T02:17:50.995Z,54
2023-01-01T02:18:23.262Z,55
2023-01-01T02:18:40.447Z,55
2023-01-01T02:19:11.927Z,55
2023-01-01T02:19:35.199Z,55
2023-01-01T02:19:59.608Z,55
2023-01-01T02:20:31.429Z,55
2023-01-01T02:21:03.352Z,55
2023-01-01T02:21:34.703Z,55
2023-01-01T02:21:51.028Z,55
2023-01-01T02:22:24.221Z,55
2023-01-01T02:22:41.293Z,55
2023-01-01T02:23:11.338Z,55
2023-01-01T02:23:34.725Z,55
2023-01-01T02:23:59.320Z,55
2023-01-01T02:24:32.028Z,55
2023-01-01T02:25:03.467Z,55
2023-01-01T02:25:36.843Z,55
2023-01-01T02:26:07.200Z,55
2023-01-01T02:26:34.628Z,55
2023-01-01T02:26:55.333Z,55
2023-01-01T02:27:27.449Z,55
2023-01-01T02:28:00.029Z,55
2023-01-01T02:28:31.290Z,55
2023-01-01T02:29:05.123Z,55
2023-01-01T02:29:34.749Z,56
2023-01-01T02:29:51.032Z,56
2023-01-01T02:30:23.533Z,55
2023-01-01T02:30:40.410Z,55
2023-01-01T02:31:12.177Z,55
2023-01-01T02:31:35.566Z,55
2023-01-01T02:31:59.180Z,55
2023-01-01T02:32:31.400Z,55
2023-01-01T02:33:03.324Z,56
2023-01-01T02:33:34.799Z,56
2023-01-01T02:33:51.024Z,56
2023-01-01T02:34:24.128Z,56
2023-01-01T02:34:41.216Z,56
2023-01-01T02:35:11.390Z,55
2023-01-01T02:35:35.200Z,55
2023-01-01T02:35:59.368Z,55
2023-01-01T02:36:32.419Z,56
2023-01-01T02:37:03.396Z,55
2023-01-01T02:37:35.723Z,55
2023-01-01T02:38:07.231Z,55
2023-01-01T02:38:34.637Z,55
2023-01-01T02:38:55.353Z,55
2023-01-01T02:39:27.298Z,56
2023-01-01T02:39:59.973Z,56
2023-01-01T02:40:31.444Z,56
2023-01-01T02:41:04.039Z,56
2023-01-01T02:41:35.538Z,56
2023-01-01T02:42:08.061Z,56
2023-01-01T02:42:35.013Z,56
2023-01-01T02:42:55.290Z,56
2023-01-01T02:43:27.299Z,56
2023-01-01T02:44:31.307Z,56
2023-01-01T02:45:03.625Z,56
2023-01-01T02:45:35.421Z,56
2023-01-01T02:46:07.244Z,56
2023-01-01T02:46:34.618Z,56
2023-01-01T02:46:55.292Z,56
2023-01-01T02:47:27.949Z,56
2023-01-01T02:47:59.185Z,56
2023-01-01T02:48:31.917Z,56
2023-01-01T02:49:09.610Z,56
2023-01-01T02:49:35.855Z,56
2023-01-01T02:50:07.387Z,56
2023-01-01T02:50:34.627Z,56
2023-01-01T02:50:55.411Z,56
2023-01-01T02:51:27.233Z,56
2023-01-01T02:52:00.017Z,56
2023-01-01T02:52:31.283Z,56
2023-01-01T02:53:04.153Z,56
2023-01-01T02:53:35.123Z,56
2023-01-01T02:54:08.187Z,56
2023-01-01T02:54:34.601Z,56
2023-01-01T02:54:55.275Z,56
2023-01-01T02:55:27.308Z,57
2023-01-01T02:55:59.187Z,57
2023-01-01T02:56:31.358Z,57
2023-01-01T02:57:03.384Z,57
2023-01-01T02:57:35.640Z,57
2023-01-01T02:58:07.230Z,57
2023-01-01T02:58:34.744Z,57
2023-01-01T02:58:55.260Z,57
2023-01-01T02:59:28.037Z,57
2023-01-01T02:59:59.279Z,57
2023-01-01T03:00:32.323Z,57
2023-01-01T03:01:03.360Z,57
2023-01-01T03:01:35.516Z,57
2023-01-01T03:02:07.387Z,57
2023-01-01T03:02:34.654Z,57
2023-01-01T03:02:55.443Z,56
2023-01-01T03:03:27.398Z,57
2023-01-01T03:04:00.227Z,57
2023-01-01T03:04:31.276Z,57
2023-01-01T03:05:04.309Z,57
2023-01-01T03:05:34.802Z,57
2023-01-01T03:05:51.252Z,57
2023-01-01T03:06:23.321Z,57
2023-01-01T03:06:40.405Z,57
2023-01-01T03:07:12.061Z,57
2023-01-01T03:07:35.370Z,57
2023-01-01T03:07:59.278Z,57
2023-01-01T03:08:31.281Z,57
2023-01-01T03:09:03.355Z,57
2023-01-01T03:09:35.148Z,57
2023-01-01T03:10:07.447Z,57
2023-01-01T03:10:34.536Z,57
2023-01-01T03:10:55.424Z,57
2023-01-01T03:11:28.007Z,57
2023-01-01T03:11:59.286Z,57
2023-01-01T03:12:32.617Z,57
2023-01-01T03:13:03.200Z,57
2023-01-01T03:13:35.311Z,57
2023-01-01T03:14:07.238Z,57
2023-01-01T03:14:34.569Z,57
2023-01-01T03:14:55.159Z,57
2023-01-01T03:15:27.407Z,57
2023-01-01T03:16:00.347Z,57
2023-01-01T03:16:31.316Z,57
2023-01-01T03:17:04.479Z,57
2023-01-01T03:17:34.736Z,58
2023-01-01T03:17:51.156Z,58
2023-01-01T03:18:23.336Z,58
2023-01-01T03:18:40.455Z,58
2023-01-01T03:19:12.011Z,58
2023-01-01T03:19:34.717Z,57
2023-01-01T03:19:59.269Z,58
2023-01-01T03:20:31.396Z,58
2023-01-01T03:21:03.205Z,58
2023-01-01T03:21:34.882Z,58
2023-01-01T03:21:51.107Z,58
2023-01-01T03:22:23.906Z,58
2023-01-01T03:23:11.146Z,58
2023-01-01T03:23:34.731Z,58
2023-01-01T03:23:59.336Z,58
2023-01-01T03:24:32.762Z,58
2023-01-01T03:25:03.452Z,58
2023-01-01T03:25:35.879Z,58
2023-01-01T03:26:07.283Z,58
2023-01-01T03:26:34.615Z,58
2023-01-01T03:26:55.180Z,58
2023-01-01T03:27:27.281Z,58
2023-01-01T03:27:59.883Z,58
2023-01-01T03:28:31.177Z,58
2023-01-01T03:29:04.232Z,58
2023-01-01T03:29:34.684Z,59
2023-01-01T03:29:51.168Z,59
2023-01-01T03:30:24.039Z,59
2023-01-01T03:30:40.361Z,58
2023-01-01T03:31:12.018Z,59
2023-01-01T03:31:34.899Z,59
2023-01-01T03:31:59.303Z,59
2023-01-01T03:32:31.289Z,59
2023-01-01T03:33:03.431Z,59
2023-01-01T03:33:35.573Z,59
2023-01-01T03:34:07.363Z,59
2023-01-01T03:34:34.736Z,59
2023-01-01T03:34:55.307Z,59
2023-01-01T03:35:28.303Z,59
2023-01-01T03:35:59.276Z,59
2023-01-01T03:36:32.139Z,59
2023-01-01T03:37:03.307Z,59
2023-01-01T03:37:35.657Z,59
2023-01-01T03:38:07.183Z,59
2023-01-01T03:38:35.543Z,59
2023-01-01T03:38:55.295Z,59
2023-01-01T03:39:27.340Z,59
2023-01-01T03:40:00.010Z,59
2023-01-01T03:40:31.352Z,59
2023-01-01T03:41:04.129Z,59
2023-01-01T03:41:34.814Z,59
2023-01-01T03:41:51.084Z,59
2023-01-01T03:42:23.245Z,59
2023-01-01T03:42:40.331Z,59
2023-01-01T03:43:12.114Z,59
2023-01-01T03:43:34.719Z,59
2023-01-01T03:43:59.217Z,59
2023-01-01T03:44:31.188Z,60
2023-01-01T03:45:03.518Z,60
2023-01-01T03:45:34.835Z,60
2023-01-01T03:45:51.242Z,59
2023-01-01T03:46:24.052Z,59
2023-01-01T03:46:41.318Z,59
2023-01-01T03:47:11.254Z,59
2023-01-01T03:47:34.680Z,59
2023-01-01T03:47:59.200Z,59
2023-01-01T03:48:32.110Z,59
2023-01-01T03:49:04.451Z,59
2023-01-01T03:49:34.940Z,59
2023-01-01T03:49:51.888Z,59
2023-01-01T03:50:23.314Z,60
2023-01-01T03:50:40.315Z,60
2023-01-01T03:51:11.323Z,60
2023-01-01T03:51:35.475Z,60
2023-01-01T03:51:59.987Z,60
2023-01-01T03:52:31.281Z,60
2023-01-01T03:53:04.291Z,60
2023-01-01T03:53:35.473Z,60
2023-01-01T03:54:08.159Z,60
2023-01-01T03:54:34.621Z,60
2023-01-01T03:54:58.862Z,60
2023-01-01T03:55:27.469Z,60
2023-01-01T03:55:59.223Z,60
2023-01-01T03:56:31.313Z,60
2023-01-01T03:57:03.350Z,60
2023-01-01T03:57:35.324Z,60
2023-01-01T03:58:07.697Z,60
2023-01-01T03:58:35.349Z,60
2023-01-01T03:58:55.281Z,60
2023-01-01T03:59:27.846Z,60
2023-01-01T03:59:59.142Z,60
2023-01-01T04:00:32.492Z,60
2023-01-01T04:01:03.346Z,60
2023-01-01T04:01:35.775Z,60
2023-01-01T04:02:07.328Z,60
2023-01-01T04:02:34.707Z,60
2023-01-01T04:02:55.269Z,60
2023-01-01T04:03:27.458Z,60
2023-01-01T04:04:00.163Z,60
2023-01-01T04:04:31.292Z,60
2023-01-01T04:05:04.156Z,60
2023-01-01T04:05:34.810Z,60
2023-01-01T04:05:51.210Z,61
2023-01-01T04:06:23.405Z,61
2023-01-01T04:06:40.491Z,61
2023-01-01T04:07:15.543Z,61
2023-01-01T04:07:34.689Z,61
2023-01-01T04:08:16.073Z,61
2023-01-01T04:08:35.686Z,61
2023-01-01T04:09:03.323Z,61
2023-01-01T04:09:35.676Z,61
2023-01-01T04:10:07.381Z,61
2023-01-01T04:10:39.419Z,61
2023-01-01T04:11:11.351Z,61
2023-01-01T04:11:34.726Z,61
2023-01-01T04:11:59.235Z,61
2023-01-01T04:12:32.048Z,61
2023-01-01T04:13:03.313Z,61
2023-01-01T04:13:35.527Z,61
2023-01-01T04:14:07.302Z,61
2023-01-01T04:14:34.587Z,61
2023-01-01T04:14:55.269Z,61
2023-01-01T04:15:27.427Z,61
2023-01-01T04:16:00.383Z,61
2023-01-01T04:16:31.326Z,61
2023-01-01T04:17:04.588Z,61
2023-01-01T04:17:34.733Z,61
2023-01-01T04:17:51.179Z,61
2023-01-01T04:18:23.373Z,61
2023-01-01T04:18:40.412Z,61
2023-01-01T04:19:11.925Z,61
2023-01-01T04:19:34.692Z,61
2023-01-01T04:19:59.271Z,61
2023-01-01T04:20:31.464Z,61
2023-01-01T04:21:03.297Z,61
2023-01-01T04:21:34.866Z,61
2023-01-01T04:21:51.176Z,61
2023-01-01T04:22:24.231Z,61
2023-01-01T04:22:41.472Z,61
2023-01-01T04:23:11.224Z,61
2023-01-01T04:23:34.634Z,61
2023-01-01T04:23:59.166Z,61
2023-01-01T04:24:32.033Z,61
2023-01-01T04:25:03.429Z,61
2023-01-01T04:25:35.865Z,61
2023-01-01T04:26:07.256Z,61
2023-01-01T04:26:34.766Z,61
2023-01-01T04:26:55.234Z,61
2023-01-01T04:27:27.197Z,61
2023-01-01T04:28:16.467Z,61
2023-01-01T04:28:35.333Z,61
2023-01-01T04:29:03.276Z,61
2023-01-01T04:29:34.944Z,61
2023-01-01T04:29:51.173Z,62
2023-01-01T04:30:24.477Z,61
2023-01-01T04:31:11.212Z,62
2023-01-01T04:31:34.636Z,62
2023-01-01T04:31:59.215Z,62
2023-01-01T04:32:32.372Z,62
2023-01-01T04:33:03.313Z,62
2023-01-01T04:33:35.725Z,62
2023-01-01T04:34:07.350Z,62
2023-01-01T04:34:35.651Z,62
2023-01-01T04:34:55.173Z,62
2023-01-01T04:35:27.352Z,62
2023-01-01T04:35:59.854Z,61
2023-01-01T04:36:31.297Z,62
2023-01-01T04:37:08.233Z,62
2023-01-01T04:37:34.792Z,62
2023-01-01T04:37:51.197Z,62
2023-01-01T04:38:23.324Z,62
2023-01-01T04:38:40.309Z,62
2023-01-01T04:39:12.062Z,62
2023-01-01T04:39:35.280Z,62
2023-01-01T04:39:59.237Z,62
2023-01-01T04:40:31.338Z,61
2023-01-01T04:41:03.212Z,62
2023-01-01T04:41:34.642Z,62
2023-01-01T04:41:51.112Z,62
2023-01-01T04:42:23.940Z,62
2023-01-01T04:42:41.033Z,62
2023-01-01T04:43:11.227Z,62
2023-01-01T04:43:34.748Z,62
2023-01-01T04:43:59.270Z,62
2023-01-01T04:44:31.993Z,62
2023-01-01T04:45:03.410Z,62
2023-01-01T04:45:36.201Z,62
2023-01-01T04:46:07.242Z,62
2023-01-01T04:46:35.358Z,62
2023-01-01T04:47:00.005Z,62
2023-01-01T04:47:27.244Z,62
2023-01-01T04:48:00.216Z,62
2023-01-01T04:48:31.119Z,62
2023-01-01T04:49:04.111Z,62
2023-01-01T04:49:34.924Z,62
2023-01-01T04:49:51.344Z,62
2023-01-01T04:50:23.417Z,63
2023-01-01T04:50:40.336Z,62
2023-01-01T04:51:28.026Z,62
2023-01-01T04:51:59.243Z,62
2023-01-01T04:52:32.132Z,62
2023-01-01T04:53:03.291Z,62
2023-01-01T04:53:35.498Z,62
2023-01-01T04:54:23.243Z,62
2023-01-01T04:54:41.198Z,62
2023-01-01T04:55:11.388Z,62
2023-01-01T04:55:34.764Z,62
2023-01-01T04:55:59.399Z,62
2023-01-01T04:56:31.783Z,62
2023-01-01T04:57:04.250Z,62
2023-01-01T04:57:34.666Z,62
2023-01-01T04:57:51.130Z,63
2023-01-01T04:58:23.350Z,63
2023-01-01T04:58:40.300Z,63
2023-01-01T04:59:12.129Z,63
2023-01-01T04:59:34.774Z,63
2023-01-01T04:59:59.282Z,63
2023-01-01T05:00:31.476Z,63
2023-01-01T05:01:03.286Z,63
2023-01-01T05:01:34.734Z,63
2023-01-01T05:01:51.406Z,63
2023-01-01T05:02:24.256Z,63
2023-01-01T05:02:41.329Z,63
2023-01-01T05:03:11.291Z,63
2023-01-01T05:03:34.835Z,63
2023-01-01T05:04:15.322Z,63
2023-01-01T05:04:35.272Z,63
2023-01-01T05:05:03.367Z,63
2023-01-01T05:05:35.506Z,63
2023-01-01T05:06:07.272Z,63
2023-01-01T05:06:34.599Z,63
2023-01-01T05:06:55.142Z,63
2023-01-01T05:07:27.260Z,63
2023-01-01T05:08:00.187Z,63
2023-01-01T05:08:31.172Z,63
2023-01-01T05:09:04.204Z,63
2023-01-01T05:09:35.396Z,63
2023-01-01T05:10:07.994Z,64
2023-01-01T05:10:34.845Z,64
2023-01-01T05:10:55.288Z,64
2023-01-01T05:11:27.359Z,64
2023-01-01T05:11:59.266Z,64
2023-01-01T05:12:32.018Z,64
2023-01-01T05:13:03.364Z,64
2023-01-01T05:13:36.729Z,64
2023-01-01T05:14:07.128Z,64
2023-01-01T05:14:35.207Z,64
2023-01-01T05:14:55.209Z,64
2023-01-01T05:15:27.461Z,64
2023-01-01T05:15:59.942Z,64
2023-01-01T05:16:31.301Z,65
2023-01-01T05:17:04.006Z,65
2023-01-01T05:17:35.382Z,65
2023-01-01T05:18:07.976Z,65
2023-01-01T05:18:34.630Z,65
2023-01-01T05:18:55.222Z,65
2023-01-01T05:19:27.267Z,65
2023-01-01T05:19:59.209Z,65
2023-01-01T05:20:31.291Z,65
2023-01-01T05:21:03.303Z,65
2023-01-01T05:21:34.628Z,65
2023-01-01T05:21:51.073Z,65
2023-01-01T05:22:23.958Z,65
2023-01-01T05:22:41.072Z,65
2023-01-01T05:23:11.213Z,65
2023-01-01T05:23:35.006Z,65
2023-01-01T05:23:59.164Z,65
2023-01-01T05:24:32.020Z,65
2023-01-01T05:25:03.766Z,65
2023-01-01T05:25:35.613Z,65
2023-01-01T05:26:07.381Z,65
2023-01-01T05:26:35.067Z,65
2023-01-01T05:26:55.141Z,65
2023-01-01T05:27:27.658Z,65
2023-01-01T05:28:00.899Z,65
2023-01-01T05:28:31.458Z,65
2023-01-01T05:29:19.969Z,65
2023-01-01T05:29:51.643Z,65
2023-01-01T05:30:24.847Z,65
2023-01-01T05:30:41.761Z,65
2023-01-01T05:31:11.196Z,65
2023-01-01T05:31:34.841Z,65
2023-01-01T05:31:59.339Z,66
2023-01-01T05:32:32.059Z,66
2023-01-01T05:33:03.268Z,66
2023-01-01T05:33:35.713Z,66
2023-01-01T05:34:55.224Z,66
2023-01-01T05:35:27.407Z,66
2023-01-01T05:35:59.960Z,66
2023-01-01T05:36:31.214Z,66
2023-01-01T05:37:03.881Z,65
2023-01-01T05:37:34.929Z,65
2023-01-01T05:38:08.191Z,65
2023-01-01T05:38:34.655Z,65
2023-01-01T05:38:55.259Z,65
2023-01-01T05:39:27.154Z,65
2023-01-01T05:39:59.173Z,65
2023-01-01T05:40:31.423Z,65
2023-01-01T05:41:03.294Z,66
2023-01-01T05:41:34.769Z,66
2023-01-01T05:41:51.060Z,66
2023-01-01T05:42:24.082Z,66
2023-01-01T05:42:41.151Z,66
2023-01-01T05:43:11.259Z,67
2023-01-01T05:43:34.579Z,67
2023-01-01T05:43:59.124Z,67
2023-01-01T05:44:31.915Z,67
2023-01-01T05:45:03.530Z,67
2023-01-01T05:45:35.603Z,67
2023-01-01T05:46:07.345Z,67
2023-01-01T05:46:35.251Z,67
2023-01-01T05:46:55.283Z,67
2023-01-01T05:47:29.782Z,67
2023-01-01T05:47:59.987Z,67
2023-01-01T05:48:31.231Z,67
2023-01-01T05:49:03.336Z,67
2023-01-01T05:49:34.706Z,67
2023-01-01T05:49:51.965Z,67
2023-01-01T05:50:23.352Z,67
2023-01-01T05:50:40.364Z,67
2023-01-01T05:51:11.490Z,67
2023-01-01T05:51:59.953Z,67
2023-01-01T05:52:31.229Z,67
2023-01-01T05:53:03.906Z,67
2023-01-01T05:53:34.947Z,67
2023-01-01T05:54:34.640Z,67
2023-01-01T05:54:55.220Z,67
2023-01-01T05:55:27.354Z,67
2023-01-01T05:56:16.171Z,68
2023-01-01T05:56:34.611Z,68
2023-01-01T05:57:03.301Z,68
2023-01-01T05:57:36.682Z,68
2023-01-01T05:58:07.177Z,68
2023-01-01T05:58:34.687Z,68
2023-01-01T05:58:55.251Z,68
2023-01-01T05:59:35.532Z,68
2023-01-01T05:59:59.166Z,68
2023-01-01T06:00:31.490Z,68
2023-01-01T06:01:03.308Z,68
2023-01-01T06:01:37.605Z,68
2023-01-01T06:01:51.962Z,67
2023-01-01T06:02:23.324Z,67
2023-01-01T06:02:40.396Z,67
2023-01-01T06:03:11.153Z,68
2023-01-01T06:03:34.610Z,68
2023-01-01T06:03:59.980Z,68
2023-01-01T06:04:31.235Z,68
2023-01-01T06:05:04.203Z,68
2023-01-01T06:05:34.688Z,68
2023-01-01T06:05:51.299Z,68
2023-01-01T06:06:23.343Z,68
2023-01-01T06:06:40.488Z,68
2023-01-01T06:07:11.856Z,68
2023-01-01T06:07:34.649Z,68
2023-01-01T06:07:59.298Z,68
2023-01-01T06:08:31.229Z,67
2023-01-01T06:09:03.305Z,68
2023-01-01T06:09:34.688Z,68
2023-01-01T06:09:51.459Z,68
2023-01-01T06:10:24.140Z,68
2023-01-01T06:10:40.978Z,67
2023-01-01T06:11:11.316Z,67
2023-01-01T06:11:34.606Z,67
2023-01-01T06:11:59.267Z,67
2023-01-01T06:12:32.036Z,67
2023-01-01T06:13:06.725Z,67
2023-01-01T06:13:35.849Z,67
2023-01-01T06:14:07.237Z,67
2023-01-01T06:14:34.648Z,67
2023-01-01T06:14:55.207Z,67
2023-01-01T06:15:35.496Z,67
2023-01-01T06:16:00.035Z,67
2023-01-01T06:16:31.322Z,67
2023-01-01T06:17:03.819Z,67
2023-01-01T06:17:34.687Z,67
2023-01-01T06:17:51.043Z,67
2023-01-01T06:18:34.522Z,67
2023-01-01T06:18:55.314Z,67
2023-01-01T06:19:28.018Z,67
2023-01-01T06:19:59.192Z,67
2023-01-01T06:20:31.366Z,67
2023-01-01T06:21:03.330Z,67
2023-01-01T06:21:35.054Z,67
2023-01-01T06:22:07.390Z,67
2023-01-01T06:22:36.428Z,67
2023-01-01T06:22:55.194Z,67
2023-01-01T06:23:27.129Z,67
2023-01-01T06:23:59.282Z,67
2023-01-01T06:24:36.977Z,67
2023-01-01T06:25:03.436Z,67
2023-01-01T06:25:34.805Z,67
2023-01-01T06:25:52.011Z,67
2023-01-01T06:26:23.304Z,67
2023-01-01T06:26:40.433Z,67
2023-01-01T06:27:11.146Z,67
2023-01-01T06:27:34.660Z,67
2023-01-01T06:27:59.936Z,67
2023-01-01T06:28:31.244Z,67
2023-01-01T06:29:03.920Z,67
2023-01-01T06:29:34.796Z,67
2023-01-01T06:30:08.230Z,67
2023-01-01T06:30:34.649Z,67
2023-01-01T06:30:55.332Z,67
2023-01-01T06:31:27.144Z,67
2023-01-01T06:31:59.203Z,67
2023-01-01T06:32:31.251Z,67
2023-01-01T06:33:03.123Z,67
2023-01-01T06:33:34.816Z,67
2023-01-01T06:33:51.166Z,67
2023-01-01T06:34:24.155Z,67
2023-01-01T06:34:41.095Z,67
2023-01-01T06:35:11.319Z,67
2023-01-01T06:35:34.743Z,67
2023-01-01T06:35:59.364Z,67
2023-01-01T06:36:31.785Z,67
2023-01-01T06:37:07.073Z,67
2023-01-01T06:37:35.584Z,67
2023-01-01T06:38:07.318Z,67
2023-01-01T06:38:35.397Z,68
2023-01-01T06:38:55.125Z,67
2023-01-01T06:39:27.247Z,68
2023-01-01T06:39:59.847Z,68
2023-01-01T06:40:31.378Z,68
2023-01-01T06:41:03.989Z,68
2023-01-01T06:41:34.815Z,68
2023-01-01T06:41:51.175Z,68
2023-01-01T06:42:23.304Z,68
2023-01-01T06:42:40.429Z,68
2023-01-01T06:43:11.791Z,68
2023-01-01T06:43:34.926Z,68
2023-01-01T06:43:59.263Z,68
2023-01-01T06:44:31.229Z,68
2023-01-01T06:45:03.487Z,69
2023-01-01T06:45:34.787Z,69
2023-01-01T06:45:51.383Z,69
2023-01-01T06:46:23.865Z,69
2023-01-01T06:46:40.860Z,69
2023-01-01T06:47:11.129Z,69
2023-01-01T06:47:34.809Z,69
2023-01-01T06:47:59.450Z,69
2023-01-01T06:48:32.371Z,69
2023-01-01T06:49:03.146Z,69
2023-01-01T06:49:35.275Z,69
2023-01-01T06:50:07.377Z,69
2023-01-01T06:50:34.953Z,69
2023-01-01T06:50:55.323Z,69